KESN/ESN METAR and TAF weather

Enter ICAO airport designator
Station Type Date Time Source
KESN METAR 2019/02/17 08:17 UTC NOAA

KESN 170817Z AUTO 02005KT 10SM CLR M01/M06 A3010 RMK AO2 T10061058


Station Type Date Time Source
KESN Decoded METAR 2019/02/17 08:17 UTC NOAA

Easton / Newman Field, MD, United States (KESN) 38-48N 076-04W
Feb 17, 2019 - 03:17 AM EST / 2019.02.17 0817 UTC
Wind: from the NNE (020 degrees) at 6 MPH (5 KT):0
Visibility: 10 mile(s):0
Sky conditions: clear
Temperature: 30.9 F (-0.6 C)
Windchill: 24 F (-4 C):1
Dew Point: 21.6 F (-5.8 C)
Relative Humidity: 67%
Pressure (altimeter): 30.1 in. Hg (1019 hPa)
ob: KESN 170817Z AUTO 02005KT 10SM CLR M01/M06 A3010 RMK AO2 T10061058
cycle: 8

Station Type Date Time Source
KESN TAF UTC NOAA

Error!


Example: see airport list